Flight Track Log - Related Links

Times and Time Zones

All times are in EDT time to prevent confusion due to time zone crossing. See the FDX1482 flight status page for this flight to view local times or setup timezone preferences in your user account.

Time Position Orientation Groundspeed Altitude Reporting Facility
EDT Latitude Longitude Course Direction KTS MPH feet Rate Location/Type
Sat 05:23:01 AM 35.0167 -89.9667 165° South 167 192 1,100  Level KMEM
Sat 05:24:07 AM 34.9667 -89.9500 165° South 233 268 3,600 2,864 Climbing KMEM
Sat 05:25:13 AM 34.9333 -89.8833 121° Southeast 297 342 7,400 3,020 Climbing KMEM
Sat 05:26:40 AM 34.9892 -89.7411 64° Northeast 330 380 11,300 2,653 Climbing Memphis Center
Sat 05:27:40 AM 35.0344 -89.6369 62° Northeast 373 429 13,900 2,800 Climbing Memphis Center
Sat 05:28:40 AM 35.0858 -89.5069 64° Northeast 396 456 16,900 2,950 Climbing Memphis Center
Sat 05:29:40 AM 35.1411 -89.3719 63° Northeast 425 489 19,800 2,750 Climbing Memphis Center
Sat 05:30:40 AM 35.1964 -89.2392 63° Northeast 434 499 22,400 2,350 Climbing Memphis Center
Sat 05:31:40 AM 35.2614 -89.0831 63° Northeast 452 520 24,500 2,000 Climbing Memphis Center
Sat 05:32:40 AM 35.3183 -88.9347 65° Northeast 466 536 26,400 2,300 Climbing Memphis Center
Sat 05:33:40 AM 35.3706 -88.7808 67° East 483 556 29,100 1,051 Climbing Memphis Center
Sat 05:39:01 AM 35.6500 -87.9920 67° East 35,000 821 Climbing FlightAware ADS-B
Sat 05:40:08 AM 35.7030 -87.8420 66° East 35,000  Level FlightAware ADS-B
Sat 05:40:51 AM 35.7440 -87.7240 67° East 645 742 35,000  Level FlightAware ADS-B
Sat 05:41:23 AM 35.7700 -87.6490 67° East 380 437 35,000  Level FlightAware ADS-B
Sat 05:41:57 AM 35.7980 -87.5670 67° East 459 528 35,000  Level FlightAware ADS-B
Sat 05:42:35 AM 35.8310 -87.4730 67° East 424 488 35,000  Level FlightAware ADS-B
Sat 05:43:09 AM 35.8580 -87.3930 67° East 352 405 35,000  Level FlightAware ADS-B
Sat 05:43:44 AM 35.8880 -87.3080 66° East 425 489 35,000  Level FlightAware ADS-B
Sat 05:44:20 AM 35.9180 -87.2190 67° East 528 608 35,000  Level FlightAware ADS-B
Sat 05:44:56 AM 35.9490 -87.1280 67° East 621 715 35,000  Level FlightAware ADS-B
Sat 05:45:19 AM 35.9685 -87.0720 67° East 486 559 35,000  Level FlightAware ADS-B
Sat 05:45:50 AM 35.9940 -86.9969 67° East 466 536 35,000  Level FlightAware ADS-B
Sat 05:46:24 AM 36.0219 -86.9144 67° East 460 529 35,000  Level FlightAware ADS-B
Sat 05:46:54 AM 36.0477 -86.8375 67° East 489 563 35,000  Level FlightAware ADS-B
Sat 05:47:29 AM 36.0764 -86.7522 67° East 473 544 35,000  Level FlightAware ADS-B
Sat 05:48:11 AM 36.1115 -86.6481 67° East 466 536 35,000  Level FlightAware ADS-B
Sat 05:48:44 AM 36.1390 -86.5663 67° East 472 543 35,000  Level FlightAware ADS-B
Sat 05:49:14 AM 36.1639 -86.4916 68° East 467 537 35,000  Level FlightAware ADS-B
Sat 05:49:44 AM 36.1893 -86.4157 67° East 472 543 35,000  Level FlightAware ADS-B
Sat 05:50:16 AM 36.2151 -86.3383 68° East 469 540 35,000  Level FlightAware ADS-B
Sat 05:50:47 AM 36.2408 -86.2609 68° East 465 535 35,000  Level FlightAware ADS-B
Sat 05:51:22 AM 36.2702 -86.1720 68° East 472 543 35,000  Level FlightAware ADS-B
Sat 05:51:52 AM 36.2940 -86.0990 68° East 387 445 35,000  Level FlightAware ADS-B
Sat 05:52:30 AM 36.3190 -86.0220 68° East 393 452 35,000  Level FlightAware ADS-B
Sat 05:52:52 AM 36.3441 -85.9469 67° East 35,000  Level FlightAware ADS-B
Sat 05:53:22 AM 36.3689 -85.8714 68° East 475 547 35,000  Level FlightAware ADS-B
Sat 05:53:52 AM 36.3941 -85.7946 68° East 471 542 35,000  Level FlightAware ADS-B
Sat 05:54:25 AM 36.4212 -85.7116 68° East 468 539 35,000  Level FlightAware ADS-B
Sat 05:55:05 AM 36.4510 -85.6190 68° East 460 529 35,000  Level FlightAware ADS-B
Sat 05:55:41 AM 36.4835 -85.5193 68° East 479 551 35,000  Level FlightAware ADS-B
Sat 05:56:12 AM 36.5084 -85.4420 68° East 466 536 35,000  Level FlightAware ADS-B
Sat 05:56:42 AM 36.5333 -85.3646 68° East 476 548 35,000  Level FlightAware ADS-B
Sat 05:57:14 AM 36.5598 -85.2819 68° East 493 567 35,000  Level FlightAware ADS-B
Sat 05:57:46 AM 36.5855 -85.2017 68° East 469 540 35,000  Level FlightAware ADS-B
Sat 05:58:23 AM 36.6156 -85.1077 68° East 490 564 35,000  Level FlightAware ADS-B
Sat 05:58:53 AM 36.6399 -85.0311 68° East 466 536 35,000  Level FlightAware ADS-B
Sat 05:59:32 AM 36.6710 -84.9331 68° East 473 544 35,000  Level FlightAware ADS-B
Sat 06:00:04 AM 36.6969 -84.8508 69° East 493 567 35,000  Level FlightAware ADS-B
Sat 06:00:34 AM 36.7215 -84.7731 68° East 485 558 35,000  Level FlightAware ADS-B
Sat 06:01:04 AM 36.7463 -84.6938 69° East 481 554 35,000  Level FlightAware ADS-B
Sat 06:01:34 AM 36.7711 -84.6158 68° East 482 555 35,000  Level FlightAware ADS-B
Sat 06:02:06 AM 36.7968 -84.5326 69° East 485 558 35,000  Level FlightAware ADS-B
Sat 06:02:36 AM 36.8212 -84.4545 69° East 476 548 35,000  Level FlightAware ADS-B
Sat 06:03:36 AM 36.8698 -84.2981 69° East 485 558 35,000  Level FlightAware ADS-B
Sat 06:04:18 AM 36.9010 -84.1970 69° East 557 641 35,000  Level FlightAware ADS-B
Sat 06:04:37 AM 36.9192 -84.1379 69° East 485 558 35,000  Level FlightAware ADS-B
Sat 06:05:09 AM 36.9441 -84.0572 69° East 484 557 35,000  Level FlightAware ADS-B
Sat 06:05:39 AM 36.9685 -83.9778 69° East 496 571 35,000  Level FlightAware ADS-B
Sat 06:06:09 AM 36.9924 -83.8997 69° East 473 544 35,000  Level FlightAware ADS-B
Sat 06:06:40 AM 37.0171 -83.8188 69° East 485 558 35,000  Level FlightAware ADS-B
Sat 06:07:16 AM 37.0440 -83.7310 69° East 292 336 35,000  Level FlightAware ADS-B
Sat 06:07:43 AM 37.0672 -83.6532 69° East 486 559 35,000  Level FlightAware ADS-B
Sat 06:08:16 AM 37.0934 -83.5663 69° East 487 560 35,000  Level FlightAware ADS-B
Sat 06:09:08 AM 37.1340 -83.4330 69° East 460 529 35,000  Level FlightAware ADS-B
Sat 06:09:46 AM 37.1630 -83.3340 70° East 395 455 35,000  Level FlightAware ADS-B
Sat 06:10:22 AM 37.1920 -83.2370 69° East 527 606 35,000  Level FlightAware ADS-B
Sat 06:10:56 AM 37.2190 -83.1460 70° East 379 436 35,000  Level FlightAware ADS-B
Sat 06:11:31 AM 37.2380 -83.0820 70° East 641 738 35,000  Level FlightAware ADS-B
Sat 06:11:52 AM 37.2632 -82.9971 70° East 485 558 35,000  Level FlightAware ADS-B
Sat 06:12:24 AM 37.2888 -82.9109 70° East 490 564 35,000  Level FlightAware ADS-B
Sat 06:13:03 AM 37.3187 -82.8087 70° East 486 559 35,000  Level FlightAware ADS-B
Sat 06:13:34 AM 37.3429 -82.7265 70° East 485 558 35,000  Level FlightAware ADS-B
Sat 06:14:23 AM 37.3808 -82.5968 70° East 484 557 35,000  Level FlightAware ADS-B
Sat 06:15:27 AM 37.4302 -82.4262 70° East 483 556 35,000  Level FlightAware ADS-B
Sat 06:16:22 AM 37.4719 -82.2817 70° East 490 564 35,000  Level FlightAware ADS-B
Sat 06:16:52 AM 37.4940 -82.2040 70° East 495 570 35,000  Level FlightAware ADS-B
Sat 06:17:09 AM 37.5082 -82.1558 70° East 482 555 35,000  Level FlightAware ADS-B
Sat 06:17:41 AM 37.5320 -82.0723 70° East 469 540 35,000  Level FlightAware ADS-B
Sat 06:18:11 AM 37.5547 -81.9925 70° East 477 549 35,000  Level FlightAware ADS-B
Sat 06:18:41 AM 37.5770 -81.9130 70° East 599 689 35,000  Level FlightAware ADS-B
Sat 06:18:47 AM 37.5827 -81.8943 69° East 507 583 35,000  Level FlightAware ADS-B
Sat 06:19:19 AM 37.6060 -81.8119 70° East 495 570 35,000  Level FlightAware ADS-B
Sat 06:19:51 AM 37.6304 -81.7256 70° East 486 559 35,000  Level FlightAware ADS-B
Sat 06:20:22 AM 37.6536 -81.6432 70° East 470 541 35,000  Level FlightAware ADS-B
Sat 06:20:54 AM 37.6769 -81.5601 70° East 467 537 35,000  Level FlightAware ADS-B
Sat 06:21:37 AM 37.7085 -81.4468 71° East 492 566 35,000  Level FlightAware ADS-B
Sat 06:22:07 AM 37.7310 -81.3661 71° East 474 545 35,000  Level FlightAware ADS-B
Sat 06:22:57 AM 37.7670 -81.2350 71° East 399 459 35,000  Level FlightAware ADS-B
Sat 06:23:10 AM 37.7777 -81.1981 70° East 35,000  Level FlightAware ADS-B
Sat 06:24:07 AM 37.8190 -81.0480 71° East 435 501 35,000  Level FlightAware ADS-B
Sat 06:24:43 AM 37.8460 -80.9500 71° East 698 803 35,000  Level FlightAware ADS-B
Sat 06:25:15 AM 37.8690 -80.8660 71° East 529 609 35,000  Level FlightAware ADS-B
Sat 06:25:51 AM 37.8950 -80.7690 71° East 347 399 35,000  Level FlightAware ADS-B
Sat 06:26:27 AM 37.9210 -80.6740 71° East 386 444 35,000  Level FlightAware ADS-B
Sat 06:27:01 AM 37.9470 -80.5800 71° East 472 543 35,000  Level FlightAware ADS-B
Sat 06:27:37 AM 37.9730 -80.4820 71° East 482 555 35,000  Level FlightAware ADS-B
Sat 06:28:14 AM 37.9980 -80.3860 72° East 540 621 35,000  Level FlightAware ADS-B
Sat 06:28:47 AM 38.0230 -80.2930 71° East 456 525 35,000  Level FlightAware ADS-B
Sat 06:28:59 AM 38.0320 -80.2630 69° East 391 450 35,000  Level FlightAware ADS-B
Sat 06:29:33 AM 38.0540 -80.1680 74° East 275 316 35,000  Level FlightAware ADS-B
Sat 06:30:09 AM 38.0740 -80.0680 76° East 416 479 35,000  Level FlightAware ADS-B
Sat 06:30:48 AM 38.0950 -79.9610 76° East 517 595 35,000  Level FlightAware ADS-B
Sat 06:31:20 AM 38.1120 -79.8740 76° East 579 666 35,000  Level FlightAware ADS-B
Sat 06:31:59 AM 38.1330 -79.7690 76° East 491 565 35,000  Level FlightAware ADS-B
Sat 06:32:29 AM 38.1510 -79.6800 76° East 565 650 35,000  Level FlightAware ADS-B
Sat 06:33:03 AM 38.1690 -79.5880 76° East 251 289 35,000  Level FlightAware ADS-B
Sat 06:33:43 AM 38.1910 -79.4760 76° East 624 718 35,000  Level FlightAware ADS-B
Sat 06:34:17 AM 38.2100 -79.3810 76° East 615 708 35,000 -353 Level FlightAware ADS-B
Sat 06:34:51 AM 38.2280 -79.2860 76° East 431 496 34,600 -1,588 Descending FlightAware ADS-B
Sat 06:35:25 AM 38.2470 -79.1920 76° East 457 526 33,200 -2,229 Descending FlightAware ADS-B
Sat 06:36:01 AM 38.2640 -79.1040 76° East 392 451 32,000 -2,055 Descending FlightAware ADS-B
Sat 06:36:38 AM 38.2820 -79.0070 77° East 411 473 30,700 -2,143 Descending FlightAware ADS-B
Sat 06:37:11 AM 38.2990 -78.9190 76° East 388 447 29,500 -2,149 Descending FlightAware ADS-B
Sat 06:37:45 AM 38.3160 -78.8280 77° East 430 495 28,300 -2,143 Descending FlightAware ADS-B
Sat 06:38:21 AM 38.3360 -78.7360 74° East 544 626 27,000 -1,714 Descending FlightAware ADS-B
Sat 06:38:55 AM 38.3600 -78.6590 68° East 373 429 26,300 -1,324 Descending FlightAware ADS-B
Sat 06:39:29 AM 38.3900 -78.5750 65° Northeast 356 410 25,500 -1,297 Descending FlightAware ADS-B
Sat 06:40:09 AM 38.4240 -78.4820 65° Northeast 441 507 24,700 -1,297 Descending FlightAware ADS-B
Sat 06:40:43 AM 38.4520 -78.4020 66° East 541 623 23,900 -1,324 Descending FlightAware ADS-B
Sat 06:41:17 AM 38.4790 -78.3270 65° Northeast 374 430 23,200 -1,254 Descending FlightAware ADS-B
Sat 06:41:50 AM 38.5060 -78.2490 66° East 355 409 22,500 -1,250 Descending FlightAware ADS-B
Sat 06:42:29 AM 38.5380 -78.1590 66° East 469 540 21,700 -1,233 Descending FlightAware ADS-B
Sat 06:43:03 AM 38.5650 -78.0820 66° East 502 578 21,000 -1,219 Descending FlightAware ADS-B
Sat 06:43:33 AM 38.5870 -78.0170 67° East 352 405 20,400 -1,200 Descending FlightAware ADS-B
Sat 06:44:13 AM 38.6180 -77.9290 66° East 394 453 19,600 -1,135 Descending FlightAware ADS-B
Sat 06:44:47 AM 38.6410 -77.8560 68° East 412 474 19,000 -545 Descending FlightAware ADS-B
Sat 06:45:19 AM 38.6470 -77.7820 84° East 328 377 19,000 -727 Level FlightAware ADS-B
Sat 06:45:53 AM 38.6510 -77.7010 86° East 326 375 18,200 -1,297 Descending FlightAware ADS-B
Sat 06:46:33 AM 38.6560 -77.6080 86° East 472 543 17,400 -1,029 Descending FlightAware ADS-B
Sat 06:47:03 AM 38.6600 -77.5380 86° East 326 375 17,000 -783 Descending FlightAware ADS-B
Sat 06:47:42 AM 38.6650 -77.4540 86° East 376 433 16,500 -811 Descending FlightAware ADS-B
Sat 06:48:17 AM 38.6700 -77.3730 85° East 496 571 16,000 -618 Descending FlightAware ADS-B
Sat 06:48:50 AM 38.6740 -77.3030 86° East 352 405 15,800 -1,059 Descending FlightAware ADS-B
Sat 06:49:25 AM 38.6790 -77.2260 85° East 315 362 14,800 -1,775 Descending FlightAware ADS-B
Sat 06:50:01 AM 38.6830 -77.1490 86° East 384 442 13,700 -1,690 Descending FlightAware ADS-B
Sat 06:50:36 AM 38.6870 -77.0780 86° East 352 405 12,800 -1,538 Descending FlightAware ADS-B
Sat 06:51:19 AM 38.6920 -76.9900 86° East 275 316 11,700 -1,440 Descending FlightAware ADS-B
Sat 06:51:51 AM 38.6950 -76.9260 87° East 260 299 11,000 -1,286 Descending FlightAware ADS-B
Sat 06:52:29 AM 38.6990 -76.8550 86° East 364 419 10,200 -1,241 Descending FlightAware ADS-B
Sat 06:52:49 AM 38.7010 -76.8170 86° East 299 344 9,800 -1,235 Descending FlightAware ADS-B
Sat 06:53:03 AM 38.7020 -76.7930 87° East 271 312 9,500 -1,125 Descending FlightAware ADS-B
Sat 06:53:21 AM 38.7040 -76.7620 85° East 206 237 9,200 -1,071 Descending FlightAware ADS-B
Sat 06:53:31 AM 38.7060 -76.7440 82° East 243 280 9,000 -1,200 Descending FlightAware ADS-B
Sat 06:53:41 AM 38.7110 -76.7300 65° Northeast 401 461 8,800 -1,200 Descending FlightAware ADS-B
Sat 06:54:01 AM 38.7260 -76.6950 61° Northeast 373 429 8,400 -1,350 Descending FlightAware ADS-B
Sat 06:54:21 AM 38.7400 -76.6630 61° Northeast 323 372 7,900 -1,317 Descending FlightAware ADS-B
Sat 06:54:42 AM 38.7530 -76.6340 60° Northeast 240 276 7,500 -1,263 Descending FlightAware ADS-B
Sat 06:54:59 AM 38.7650 -76.6060 61° Northeast 221 254 7,100 -1,317 Descending FlightAware ADS-B
Sat 06:55:23 AM 38.7810 -76.5690 61° Northeast 289 333 6,600 -1,227 Descending FlightAware ADS-B
Sat 06:55:43 AM 38.7970 -76.5400 55° Northeast 247 284 6,200 -1,167 Descending FlightAware ADS-B
Sat 06:55:59 AM 38.8160 -76.5250 32° Northeast 345 397 5,900 -1,250 Descending FlightAware ADS-B
Sat 06:56:07 AM 38.8250 -76.5220 15° North 398 458 5,700 -857 Descending FlightAware ADS-B
Sat 06:56:27 AM 38.8430 -76.5220 360° North 134 154 5,500 -1,143 Descending FlightAware ADS-B
Sat 06:56:49 AM 38.8800 -76.5290 352° North 426 490 4,900 -1,622 Descending FlightAware ADS-B
Sat 06:57:04 AM 38.9010 -76.5340 350° North 308 354 4,500 -1,200 Descending FlightAware ADS-B
Sat 06:57:29 AM 38.9310 -76.5410 350° North 393 452 4,100 -577 Descending FlightAware ADS-B
Sat 06:57:56 AM 38.9600 -76.5480 349° North 159 183 4,000 -471 Descending FlightAware ADS-B
Sat 06:58:20 AM 38.9870 -76.5540 350° North 237 273 3,700 -632 Descending FlightAware ADS-B
Sat 06:58:34 AM 39.0020 -76.5590 345° North 159 183 3,600 -769 Descending FlightAware ADS-B
Sat 06:58:59 AM 39.0250 -76.5650 349° North 222 255 3,200 -947 Descending FlightAware ADS-B
Sat 06:59:31 AM 39.0480 -76.5700 350° North 118 136 2,700 -1,031 Descending FlightAware ADS-B
Sat 07:00:03 AM 39.0820 -76.5860 340° North 218 251 2,100 -918 Descending FlightAware ADS-B
Sat 07:00:56 AM 39.1167 -76.6167 340° North 144 166 1,400 -743 Descending Potomac TRACON
Sat 07:01:56 AM 39.1500 -76.6500 322° Northwest 138 159 700 -700 Descending Potomac TRACON
Sat 07:03:00 AM 39.1667 -76.6667 339° North  Level FlightAware Approximate
Sat 07:10:00 AM 39.1754 -76.6683 339° North  Level Estimated
Sat 07:11:00 AM 39.1754 -76.6683 339° North  Level Estimated
Sat 07:12:00 AM 39.1754 -76.6683 339° North  Level Estimated
Sat 07:13:00 AM 39.1754 -76.6683 339° North  Level Estimated
Sat 07:14:00 AM 39.1754 -76.6683 339° North  Level Estimated

Login

Don't have an account? Register now (free) for customized features, flight alerts, and more!